Terminal Aerodrome Forecast
Issued by NWS

Home | Current Version | Previous Version | Text Only | Print | Product List | Glossary On
Versions: 1 2 3 4 5 6 7 8 9 10 11 12
000
FTUS44 KCRP 260535
TAFLRD
TAF
KLRD 260535Z 2606/2706 12016G20KT P6SM FEW080 BKN250
     FM260800 13008KT P6SM SCT020 BKN250
     FM270300 12015G20KT P6SM FEW080 BKN250=

USA.gov is the U.S. government's official web portal to all federal, state and local government web resources and services.